Nearby METAR Reports

KBED - Bedford,MA, USA
Distance from station: S 11mi, 18km
Updated: Wed, 01-Dec-2021 12:51pm EST
Partly Cloudy
Partly Cloudy
 Wind from WNW
Wind: WNW 10 mph , 17 km/h
Temperature: 45°F , 7°C
Wind Chill: 40°F , 4°C
Dew Point: 27°F , -3°C
Humidity: 49%
Barometer: 30.06 inHg , 1017.9 hPa
Clouds: Partly Cloudy
Visibility: 10 miles , 16 km
Cloud details: Partly Cloudy 4800 ft
2021/12/01 17:51 KBED 011751Z 29009KT 10SM SCT048 07/M03 A3006 RMK AO2 SLP195 T00721028 10072 20000 58002
KLWM - Lawrence,MA, USA
Distance from station: ENE 12mi, 19km
Updated: Wed, 01-Dec-2021 12:54pm EST
Clear
Clear
 Wind from WSW
Wind: WSW 12 mph , 19 km/h
Temperature: 45°F , 7°C
Wind Chill: 39°F , 4°C
Dew Point: 28°F , -2°C
Humidity: 53%
Barometer: 30.06 inHg , 1017.9 hPa
Clouds: Clear
Visibility: 10 miles , 16 km
2021/12/01 17:54 KLWM 011754Z 24010KT 10SM CLR 07/M02 A3006 RMK AO2 SLP181 T00721022 10072 20000 56005
 
KASH - Nashua,NH, USA
Distance from station: NW 14mi, 23km
Updated: Wed, 01-Dec-2021 12:56pm EST
Few Clouds
Few Clouds
 Wind from W
Wind: W 7 mph , 11 km/h
Temperature: 45°F , 7°C
Wind Chill: 41°F , 5°C
Dew Point: 28°F , -2°C
Humidity: 53%
Barometer: 30.06 inHg , 1017.9 hPa
Clouds: Few Clouds
Visibility: 10 miles , 16 km
Cloud details: Few Clouds 4200 ft
2021/12/01 17:56 KASH 011756Z 27006KT 10SM FEW042 07/M02 A3006 RMK AO2 SLP184 T00671017 10067 21011 56004
KFIT - Fitchburg, MA, USA
Distance from station: WSW 22mi, 35km
Updated: Wed, 01-Dec-2021 12:52pm EST
Few Clouds
Few Clouds
 Wind from WSW
Wind: WSW 10 mph , 17 km/h
Temperature: 43°F , 6°C
Wind Chill: 37°F , 3°C
Dew Point: 27°F , -3°C
Humidity: 53%
Barometer: 30.07 inHg , 1018.3 hPa
Clouds: Few Clouds
Visibility: 10 miles , 16 km
Cloud details: Few Clouds 4400 ft
2021/12/01 17:52 KFIT 011752Z AUTO 24009KT 10SM FEW044 06/M03 A3007 RMK AO2 SLP186 T00611033 10061 20022 56005

Metar display script from Saratoga-Weather.org